Time;durP1;ratioP1;P1;durP2;ratioP2;P2;SDS_P1;SDS_P2;PMS_P1;PMS_P2;Temp;Humidity;BMP_temperature;BMP_pressure;BME280_temperature;BME280_humidity;BME280_pressure;Samples;Min_cycle;Max_cycle;Signal;HPM_P1;HPM_P2
2021/11/30 05:01:58;;;;;;;2.03;1.90;;;3.10;99.90;;;;;;5271295;23;20495;-67
2021/11/30 05:04:25;;;;;;;6.97;2.93;;;3.10;99.90;;;;;;4978732;28;20525;-68
2021/11/30 05:06:51;;;;;;;6.97;2.20;;;3.10;99.90;;;;;;4978482;28;20487;-68
2021/11/30 05:09:18;;;;;;;4.63;2.33;;;3.10;99.90;;;;;;4978680;28;20514;-67
2021/11/30 05:11:45;;;;;;;2.20;2.10;;;3.10;99.90;;;;;;4977927;28;21006;-68
2021/11/30 05:14:11;;;;;;;2.27;2.07;;;3.10;99.90;;;;;;4978458;28;20463;-68
2021/11/30 05:16:39;;;;;;;3.13;2.70;;;3.10;99.90;;;;;;4978236;28;20796;-67
2021/11/30 05:19:07;;;;;;;2.83;2.63;;;3.00;99.90;;;;;;4978057;28;20965;-68
2021/11/30 05:21:34;;;;;;;2.30;2.07;;;2.90;99.90;;;;;;4978684;28;20537;-67
2021/11/30 05:24:04;;;;;;;2.80;2.57;;;2.80;99.90;;;;;;4978403;28;20490;-66
2021/11/30 05:26:31;;;;;;;2.43;2.23;;;2.80;99.90;;;;;;4980800;28;20479;-67
2021/11/30 05:28:58;;;;;;;2.60;2.47;;;2.80;99.90;;;;;;4992251;28;20451;-67
2021/11/30 05:31:25;;;;;;;4.13;3.20;;;2.80;99.90;;;;;;4978379;28;20508;-68
2021/11/30 05:33:52;;;;;;;5.17;2.50;;;2.80;99.90;;;;;;4977790;28;20513;-66
2021/11/30 05:36:21;;;;;;;5.77;2.70;;;2.80;99.90;;;;;;4977771;28;20455;-68
2021/11/30 05:38:48;;;;;;;2.60;2.50;;;2.70;99.90;;;;;;4977525;28;20463;-67
2021/11/30 05:41:14;;;;;;;2.60;2.40;;;2.60;99.90;;;;;;4977736;28;20482;-68
2021/11/30 05:43:41;;;;;;;3.17;2.70;;;2.60;99.90;;;;;;4977716;28;20817;-66
2021/11/30 05:46:08;;;;;;;3.23;2.93;;;2.60;99.90;;;;;;4977927;28;20478;-68
2021/11/30 05:48:35;;;;;;;7.33;3.03;;;2.60;99.90;;;;;;4977510;28;20865;-67
2021/11/30 05:51:03;;;;;;;4.67;2.77;;;2.60;99.90;;;;;;4977220;28;20475;-67
2021/11/30 05:53:31;;;;;;;6.00;2.93;;;2.50;99.90;;;;;;4977557;28;20454;-67
2021/11/30 05:56:00;;;;;;;3.93;3.20;;;2.50;99.90;;;;;;4977269;28;20513;-67
2021/11/30 05:58:28;;;;;;;4.07;3.73;;;2.40;99.90;;;;;;4977478;28;20462;-67
2021/11/30 06:01:00;;;;;;;3.97;3.60;;;2.30;99.90;;;;;;4977095;28;20494;-67
2021/11/30 06:03:31;;;;;;;4.90;4.50;;;2.40;99.90;;;;;;4977376;28;20443;-65
2021/11/30 06:05:57;;;;;;;4.57;4.10;;;2.60;99.90;;;;;;4977071;28;20467;-67
2021/11/30 06:08:24;;;;;;;12.40;3.77;;;2.80;99.90;;;;;;4977229;28;20505;-68
2021/11/30 06:10:52;;;;;;;4.87;3.67;;;2.90;99.90;;;;;;4976753;28;20479;-67
2021/11/30 06:13:19;;;;;;;4.73;3.97;;;3.20;99.90;;;;;;4977059;28;20584;-66
2021/11/30 06:15:45;;;;;;;3.90;3.40;;;3.30;99.90;;;;;;4977012;28;20455;-67
2021/11/30 06:18:12;;;;;;;7.17;3.43;;;3.30;99.90;;;;;;4976878;28;20938;-66
2021/11/30 06:20:39;;;;;;;4.80;4.40;;;3.10;99.90;;;;;;4977088;28;20470;-66
2021/11/30 06:23:05;;;;;;;5.73;4.40;;;3.10;99.90;;;;;;4976920;28;20942;-65
2021/11/30 06:25:32;;;;;;;3.77;3.47;;;3.10;99.90;;;;;;4977073;28;20458;-67
2021/11/30 06:28:00;;;;;;;5.50;5.00;;;3.10;99.90;;;;;;4976719;28;20464;-68
2021/11/30 06:30:27;;;;;;;5.30;4.80;;;2.90;99.90;;;;;;4976656;28;20455;-66
2021/11/30 06:32:54;;;;;;;5.80;5.30;;;2.70;99.90;;;;;;4976343;28;20463;-66
2021/11/30 06:35:21;;;;;;;6.80;6.10;;;2.40;99.90;;;;;;4976565;28;20448;-66
2021/11/30 06:37:48;;;;;;;8.00;5.77;;;2.30;99.90;;;;;;4976231;28;20502;-67
2021/11/30 06:40:15;;;;;;;6.10;4.83;;;2.20;99.90;;;;;;4976238;28;20459;-67
2021/11/30 06:42:42;;;;;;;6.03;5.53;;;2.10;99.90;;;;;;4977341;28;20455;-67
2021/11/30 06:45:10;;;;;;;7.90;5.87;;;2.20;99.90;;;;;;4977054;28;20459;-67
2021/11/30 06:47:37;;;;;;;6.20;5.60;;;2.10;99.90;;;;;;4976706;28;20607;-67
2021/11/30 06:50:05;;;;;;;6.47;5.83;;;2.10;99.90;;;;;;4976314;28;21029;-68
2021/11/30 06:52:32;;;;;;;12.87;7.30;;;2.10;99.90;;;;;;4976286;28;20479;-68
2021/11/30 06:54:59;;;;;;;8.10;6.50;;;2.00;99.90;;;;;;4976396;28;20578;-66
2021/11/30 06:57:25;;;;;;;8.50;6.33;;;1.90;99.90;;;;;;4976460;28;20454;-67
2021/11/30 06:59:52;;;;;;;7.03;6.33;;;1.90;99.90;;;;;;4976299;28;20459;-67
2021/11/30 07:02:21;;;;;;;7.50;5.73;;;1.80;99.90;;;;;;4975915;28;20974;-68
2021/11/30 07:04:51;;;;;;;6.83;6.17;;;1.80;99.90;;;;;;4976071;28;20455;-69
2021/11/30 07:07:27;;;;;;;7.43;6.23;;;1.80;99.90;;;;;;4976340;28;20521;-67
2021/11/30 07:10:11;;;;;;;7.20;6.00;;;1.80;99.90;;;;;;4976214;28;20478;-67
2021/11/30 07:13:01;;;;;;;6.63;6.00;;;1.80;99.90;;;;;;4976365;28;20449;-67
2021/11/30 07:15:28;;;;;;;5.83;5.43;;;1.90;99.90;;;;;;4976074;28;20514;-68
2021/11/30 07:17:57;;;;;;;6.43;5.83;;;1.90;99.90;;;;;;4976147;28;20525;-66
2021/11/30 07:20:24;;;;;;;6.83;5.73;;;1.80;99.90;;;;;;4975864;28;20454;-67
2021/11/30 07:22:52;;;;;;;6.43;5.80;;;1.90;99.90;;;;;;4975979;28;20454;-68
2021/11/30 07:25:19;;;;;;;6.33;5.83;;;1.80;99.90;;;;;;4975786;28;20562;-68
2021/11/30 07:27:46;;;;;;;7.47;5.60;;;1.80;99.90;;;;;;4975945;28;20818;-68
2021/11/30 07:30:12;;;;;;;6.37;5.27;;;1.80;99.90;;;;;;4975673;28;20533;-68
2021/11/30 07:32:39;;;;;;;5.40;4.90;;;1.80;99.90;;;;;;4975925;28;20509;-68
2021/11/30 07:35:08;;;;;;;5.67;5.23;;;1.80;99.90;;;;;;4976046;28;20526;-67
2021/11/30 07:37:35;;;;;;;7.20;4.90;;;1.80;99.90;;;;;;4975902;28;20451;-66
2021/11/30 07:40:02;;;;;;;5.13;4.40;;;1.80;99.90;;;;;;4975767;28;20458;-66
2021/11/30 07:42:31;;;;;;;5.40;4.90;;;2.10;99.90;;;;;;4977134;28;20490;-67
2021/11/30 07:44:58;;;;;;;4.80;4.40;;;2.00;99.90;;;;;;4982205;28;20456;-65
2021/11/30 07:47:25;;;;;;;4.67;3.90;;;2.00;99.90;;;;;;4976242;28;20537;-65
2021/11/30 07:49:51;;;;;;;3.90;3.60;;;2.00;99.90;;;;;;4977133;28;20569;-66
2021/11/30 07:52:20;;;;;;;3.23;3.03;;;2.00;99.90;;;;;;4980748;28;20486;-65
2021/11/30 07:54:46;;;;;;;3.60;3.33;;;1.90;99.90;;;;;;4980225;28;20465;-65
2021/11/30 07:57:13;;;;;;;3.40;3.10;;;2.00;99.90;;;;;;4982087;28;20451;-66
2021/11/30 07:59:40;;;;;;;2.87;2.67;;;2.00;99.90;;;;;;4984144;28;20455;-66
2021/11/30 08:02:07;;;;;;;3.33;3.07;;;2.00;99.90;;;;;;4979150;28;20486;-66
2021/11/30 08:04:34;;;;;;;2.47;2.37;;;2.10;99.90;;;;;;4980035;28;20482;-66
2021/11/30 08:07:01;;;;;;;2.80;2.40;;;2.00;99.90;;;;;;4979277;28;20546;-65
2021/11/30 08:09:34;;;;;;;3.33;3.00;;;2.10;99.90;;;;;;4979430;28;20455;-66
2021/11/30 08:12:00;;;;;;;3.40;3.10;;;2.10;99.90;;;;;;4979612;28;20574;-66
2021/11/30 08:14:27;;;;;;;2.83;2.73;;;2.10;99.90;;;;;;4979689;28;20454;-66
2021/11/30 08:16:53;;;;;;;2.90;2.70;;;2.10;99.90;;;;;;4979294;28;20450;-66
2021/11/30 08:19:23;;;;;;;2.70;2.60;;;2.00;99.90;;;;;;4983072;28;20455;-66
2021/11/30 08:21:50;;;;;;;2.90;2.60;;;2.00;99.90;;;;;;4984977;28;20486;-67
2021/11/30 08:24:17;;;;;;;2.53;2.43;;;2.00;99.90;;;;;;4982152;28;20459;-66
2021/11/30 08:26:45;;;;;;;2.73;2.63;;;2.00;99.90;;;;;;4982869;28;20474;-66
2021/11/30 08:29:12;;;;;;;5.07;3.10;;;2.10;99.90;;;;;;4982556;28;20455;-65
2021/11/30 08:31:38;;;;;;;3.27;2.97;;;2.10;99.90;;;;;;4981794;28;20483;-66
2021/11/30 08:34:05;;;;;;;3.43;3.00;;;2.10;99.90;;;;;;4980567;28;20462;-66
2021/11/30 08:36:32;;;;;;;2.33;2.23;;;2.10;99.90;;;;;;4979660;28;20463;-66
2021/11/30 08:38:58;;;;;;;2.13;2.03;;;2.10;99.90;;;;;;4980303;28;20459;-66
2021/11/30 08:41:25;;;;;;;2.23;2.00;;;2.20;99.90;;;;;;4979764;28;20486;-67
2021/11/30 08:43:53;;;;;;;2.10;2.00;;;2.20;99.90;;;;;;4979273;28;20863;-66
2021/11/30 08:46:20;;;;;;;5.57;3.30;;;2.10;99.90;;;;;;4978690;28;20454;-66
2021/11/30 08:48:46;;;;;;;2.90;2.67;;;2.20;99.90;;;;;;4978110;28;20509;-65
2021/11/30 08:51:13;;;;;;;3.93;2.80;;;2.10;99.90;;;;;;4978229;28;20530;-65
2021/11/30 08:53:40;;;;;;;2.90;2.70;;;2.10;99.90;;;;;;4978120;28;20805;-67
2021/11/30 08:56:08;;;;;;;3.20;2.67;;;2.10;99.90;;;;;;4977836;28;20529;-68
2021/11/30 08:58:35;;;;;;;4.50;2.60;;;2.10;99.90;;;;;;4977993;28;20510;-67
2021/11/30 09:01:06;;;;;;;2.70;2.60;;;2.00;99.90;;;;;;4977194;28;20537;-68
2021/11/30 09:03:33;;;;;;;2.37;2.27;;;2.00;99.90;;;;;;4977668;28;20937;-67
2021/11/30 09:06:00;;;;;;;2.80;2.63;;;2.00;99.90;;;;;;4977736;28;20868;-67
2021/11/30 09:08:27;;;;;;;3.00;2.70;;;2.10;99.90;;;;;;4978656;28;20505;-67
2021/11/30 09:10:54;;;;;;;3.40;3.10;;;2.00;99.90;;;;;;4977550;28;20967;-67
2021/11/30 09:13:21;;;;;;;2.00;1.97;;;2.10;99.90;;;;;;4977643;28;20459;-67
2021/11/30 09:15:47;;;;;;;2.70;2.60;;;2.10;99.90;;;;;;4978186;28;20455;-67
2021/11/30 09:18:15;;;;;;;2.30;2.20;;;2.10;99.90;;;;;;4977579;28;20809;-67
2021/11/30 09:20:43;;;;;;;2.60;2.40;;;2.20;99.90;;;;;;4977293;28;20475;-66
2021/11/30 09:23:10;;;;;;;2.60;2.40;;;2.20;99.90;;;;;;4977732;28;20482;-67
2021/11/30 09:25:37;;;;;;;2.43;2.23;;;2.20;99.90;;;;;;4977485;28;20455;-67
2021/11/30 09:28:05;;;;;;;2.40;2.30;;;2.20;99.90;;;;;;4977190;28;20813;-67
2021/11/30 09:30:35;;;;;;;2.03;1.93;;;2.20;99.90;;;;;;4978170;28;20489;-65
2021/11/30 09:33:01;;;;;;;1.70;1.70;;;2.30;99.90;;;;;;4978204;28;20965;-65
2021/11/30 09:35:29;;;;;;;2.43;2.27;;;2.30;99.90;;;;;;4978156;28;20525;-65
2021/11/30 09:37:57;;;;;;;1.97;1.77;;;2.30;99.90;;;;;;4977863;28;20462;-66
2021/11/30 09:40:25;;;;;;;2.93;1.90;;;2.40;99.90;;;;;;4978935;28;20459;-65
2021/11/30 09:42:52;;;;;;;2.50;2.10;;;2.40;99.90;;;;;;4992635;28;20513;-65
2021/11/30 09:45:22;;;;;;;1.87;1.77;;;2.50;99.90;;;;;;4978281;28;20455;-66
2021/11/30 09:47:49;;;;;;;2.00;1.90;;;2.50;99.90;;;;;;4976712;28;21020;-65
2021/11/30 09:50:20;;;;;;;1.63;1.53;;;2.50;99.90;;;;;;4976807;28;20514;-66
2021/11/30 09:52:53;;;;;;;1.83;1.73;;;2.50;99.90;;;;;;4976718;28;20444;-66
2021/11/30 09:55:27;;;;;;;1.83;1.67;;;2.60;99.90;;;;;;4977254;28;20490;-66
2021/11/30 09:57:55;;;;;;;2.67;1.50;;;2.70;99.90;;;;;;4976876;28;20435;-66
2021/11/30 10:00:23;;;;;;;1.57;1.33;;;2.70;99.90;;;;;;4976750;28;20459;-66
2021/11/30 10:02:50;;;;;;;1.73;1.60;;;2.80;99.90;;;;;;4976745;28;21019;-66
2021/11/30 10:05:17;;;;;;;1.23;1.13;;;2.80;99.90;;;;;;4976448;28;20946;-66
2021/11/30 10:07:51;;;;;;;6.63;1.30;;;2.70;99.90;;;;;;4977050;28;20478;-66
2021/11/30 10:10:20;;;;;;;2.67;1.87;;;2.80;99.90;;;;;;4976567;28;20930;-66
2021/11/30 10:13:08;;;;;;;4.93;1.90;;;2.80;99.90;;;;;;4977210;28;20497;-67
2021/11/30 10:15:55;;;;;;;1.23;1.23;;;2.80;99.90;;;;;;4976702;28;20444;-65
2021/11/30 10:18:24;;;;;;;1.10;1.10;;;2.80;99.90;;;;;;4976741;28;20443;-66
2021/11/30 10:20:53;;;;;;;0.93;0.93;;;2.70;99.90;;;;;;4976742;28;20478;-64
2021/11/30 10:23:23;;;;;;;1.20;1.20;;;2.70;99.90;;;;;;4976397;28;20455;-65
2021/11/30 10:25:51;;;;;;;2.57;1.43;;;2.70;99.90;;;;;;4976770;28;20467;-64
2021/11/30 10:28:19;;;;;;;2.27;1.43;;;2.60;99.90;;;;;;4990511;28;20562;-65
2021/11/30 10:30:49;;;;;;;1.50;1.40;;;2.60;99.90;;;;;;4978781;28;20475;-65
2021/11/30 10:33:18;;;;;;;1.40;1.27;;;2.60;99.90;;;;;;4976093;28;20455;-65
2021/11/30 10:35:46;;;;;;;1.80;1.70;;;2.60;99.90;;;;;;4975747;28;20946;-64
2021/11/30 10:38:13;;;;;;;1.50;1.20;;;2.60;99.90;;;;;;4976160;28;20459;-65
2021/11/30 10:40:42;;;;;;;3.10;1.60;;;2.60;99.90;;;;;;4976083;28;20538;-64
2021/11/30 10:43:10;;;;;;;1.20;1.20;;;2.70;99.90;;;;;;4976028;28;20543;-65
2021/11/30 10:45:43;;;;;;;1.70;1.60;;;2.60;99.90;;;;;;4976329;28;20459;-64
2021/11/30 10:48:12;;;;;;;0.90;0.90;;;2.60;99.90;;;;;;4975934;28;20550;-65
2021/11/30 10:50:40;;;;;;;1.60;1.23;;;2.70;99.90;;;;;;4976629;28;20475;-67
2021/11/30 10:53:21;;;;;;;1.10;1.10;;;2.70;99.90;;;;;;4975802;28;20465;-67
2021/11/30 10:55:53;;;;;;;1.03;0.83;;;2.70;99.90;;;;;;4975727;28;20462;-67
2021/11/30 10:58:20;;;;;;;1.07;1.07;;;2.70;99.90;;;;;;4976112;28;20442;-66
2021/11/30 11:00:48;;;;;;;2.40;2.20;;;2.80;99.90;;;;;;4975463;28;20491;-67
2021/11/30 11:03:18;;;;;;;2.33;2.10;;;2.80;99.90;;;;;;4975660;28;20502;-67
2021/11/30 11:05:47;;;;;;;1.47;1.40;;;2.90;99.90;;;;;;4975639;28;20447;-67
2021/11/30 11:08:16;;;;;;;6.67;4.00;;;2.90;99.90;;;;;;4976226;28;20482;-67
2021/11/30 11:10:45;;;;;;;3.60;2.67;;;2.90;99.90;;;;;;4975592;28;20486;-67
2021/11/30 11:13:22;;;;;;;1.03;0.80;;;3.00;99.90;;;;;;4975415;28;20455;-67
2021/11/30 11:15:50;;;;;;;2.77;2.57;;;2.90;99.90;;;;;;4975742;28;20535;-67
2021/11/30 11:18:26;;;;;;;2.00;1.80;;;3.00;99.90;;;;;;4982163;28;20510;-67
2021/11/30 11:21:07;;;;;;;0.80;0.80;;;3.00;99.90;;;;;;4984798;28;20961;-68
2021/11/30 11:23:34;;;;;;;4.63;1.83;;;3.00;99.90;;;;;;4977492;28;20899;-67
2021/11/30 11:26:21;;;;;;;0.90;0.90;;;3.10;99.90;;;;;;4974997;28;20458;-69
2021/11/30 11:28:51;;;;;;;1.03;0.70;;;3.00;99.90;;;;;;4975952;28;20466;-67
2021/11/30 11:31:18;;;;;;;0.60;0.60;;;3.00;99.90;;;;;;4975248;28;20482;-68
2021/11/30 11:33:45;;;;;;;1.73;0.60;;;3.00;99.90;;;;;;4975208;28;20466;-68
2021/11/30 11:36:12;;;;;;;0.60;0.60;;;3.10;99.90;;;;;;4975120;28;20451;-67
2021/11/30 11:38:40;;;;;;;1.23;0.83;;;3.10;99.90;;;;;;4975445;28;20458;-68
2021/11/30 11:41:08;;;;;;;1.50;1.07;;;3.10;99.90;;;;;;4982828;28;20482;-68
2021/11/30 11:43:37;;;;;;;2.43;1.07;;;3.20;99.90;;;;;;4975901;28;20458;-68
2021/11/30 11:46:08;;;;;;;0.83;0.83;;;3.20;99.90;;;;;;4975183;28;20471;-69
2021/11/30 11:48:34;;;;;;;0.87;0.87;;;3.20;99.90;;;;;;4975196;28;20465;-67
2021/11/30 11:51:04;;;;;;;1.40;1.30;;;3.20;99.90;;;;;;4975030;28;20534;-68
2021/11/30 11:53:33;;;;;;;0.90;0.70;;;3.30;99.90;;;;;;4977288;28;20490;-68
2021/11/30 11:56:18;;;;;;;1.77;0.90;;;3.30;99.90;;;;;;4975952;28;20789;-68
2021/11/30 11:58:48;;;;;;;0.70;0.60;;;3.30;99.90;;;;;;4975033;28;20435;-67
2021/11/30 12:01:20;;;;;;;0.70;0.70;;;3.30;99.90;;;;;;4975088;28;20858;-67
2021/11/30 12:03:57;;;;;;;0.70;0.70;;;3.40;99.90;;;;;;4975217;28;20799;-65
2021/11/30 12:06:26;;;;;;;0.50;0.50;;;3.40;99.90;;;;;;4976462;28;20443;-65
2021/11/30 12:09:19;;;;;;;0.60;0.60;;;3.50;99.90;;;;;;4975046;28;21053;-65
2021/11/30 12:11:48;;;;;;;0.60;0.60;;;3.50;99.90;;;;;;4960829;28;20479;-65
2021/11/30 12:14:19;;;;;;;0.80;0.80;;;3.50;99.90;;;;;;4974811;28;20794;-67
2021/11/30 12:17:04;;;;;;;1.17;0.70;;;3.50;99.90;;;;;;4974686;28;20958;-66
2021/11/30 12:19:33;;;;;;;1.43;0.60;;;3.50;99.90;;;;;;4976297;28;20474;-66
2021/11/30 12:22:00;;;;;;;0.97;0.57;;;3.60;99.90;;;;;;4974349;28;20607;-66
2021/11/30 12:24:35;;;;;;;0.60;0.60;;;3.60;99.90;;;;;;4974494;28;20943;-66
2021/11/30 12:27:03;;;;;;;1.43;0.87;;;3.60;99.90;;;;;;4974818;28;20455;-66
2021/11/30 12:29:37;;;;;;;0.70;0.70;;;3.60;99.90;;;;;;4974645;28;20486;-66
2021/11/30 12:32:23;;;;;;;1.13;0.60;;;3.60;99.90;;;;;;4974845;28;20479;-67
2021/11/30 12:34:50;;;;;;;0.73;0.40;;;3.70;99.90;;;;;;4974137;28;20462;-65
2021/11/30 12:37:25;;;;;;;0.87;0.80;;;3.60;99.90;;;;;;4976536;28;20455;-66
2021/11/30 12:40:01;;;;;;;0.70;0.57;;;3.60;99.90;;;;;;4978828;28;20439;-66
2021/11/30 12:42:28;;;;;;;0.50;0.50;;;3.70;99.90;;;;;;4978374;28;20557;-66
2021/11/30 12:44:56;;;;;;;0.83;0.83;;;3.70;99.90;;;;;;4978159;28;20493;-66
2021/11/30 12:47:26;;;;;;;0.70;0.53;;;3.70;99.90;;;;;;4978318;28;20859;-67
2021/11/30 12:49:54;;;;;;;0.60;0.60;;;3.80;99.90;;;;;;4979108;28;20473;-66
2021/11/30 12:52:22;;;;;;;0.63;0.63;;;3.80;99.90;;;;;;4978358;28;21036;-66
2021/11/30 12:54:50;;;;;;;0.70;0.70;;;3.80;99.90;;;;;;4978735;28;20462;-66
2021/11/30 12:57:21;;;;;;;0.60;0.60;;;3.80;99.90;;;;;;4978559;28;20459;-66
2021/11/30 13:00:00;;;;;;;0.53;0.53;;;3.80;99.90;;;;;;4978364;28;20482;-66
2021/11/30 13:02:33;;;;;;;0.67;0.67;;;3.90;99.90;;;;;;4978135;28;20489;-66
2021/11/30 13:05:21;;;;;;;0.83;0.83;;;3.90;99.90;;;;;;4978340;28;20444;-66
2021/11/30 13:08:09;;;;;;;0.40;0.40;;;3.90;99.90;;;;;;4978087;28;20486;-66
2021/11/30 13:10:41;;;;;;;0.30;0.30;;;4.00;99.90;;;;;;4977700;28;20537;-65
2021/11/30 13:13:14;;;;;;;0.60;0.60;;;4.00;99.90;;;;;;4977667;28;20451;-66
2021/11/30 13:15:42;;;;;;;0.97;0.80;;;4.00;99.90;;;;;;4980066;28;20471;-65
2021/11/30 13:18:10;;;;;;;0.70;0.70;;;4.00;99.90;;;;;;4990356;28;20450;-66
2021/11/30 13:20:37;;;;;;;0.50;0.50;;;4.10;99.90;;;;;;4977340;28;20475;-66
2021/11/30 13:23:06;;;;;;;2.70;0.80;;;4.00;99.90;;;;;;4977350;28;20954;-65
2021/11/30 13:25:35;;;;;;;0.53;0.53;;;4.00;99.90;;;;;;4977802;28;20455;-66
2021/11/30 13:28:06;;;;;;;0.60;0.60;;;4.10;99.90;;;;;;4977444;28;20487;-64
2021/11/30 13:30:34;;;;;;;0.50;0.50;;;4.30;99.90;;;;;;4976963;28;20566;-64
2021/11/30 13:33:04;;;;;;;1.37;0.47;;;4.70;99.90;;;;;;4977498;28;20513;-63
2021/11/30 13:35:34;;;;;;;1.60;0.63;;;5.10;99.90;;;;;;4977045;28;20943;-63
2021/11/30 13:38:08;;;;;;;1.07;0.50;;;5.20;99.90;;;;;;4977278;28;20507;-64
2021/11/30 13:40:41;;;;;;;0.40;0.40;;;5.30;99.90;;;;;;4977304;28;20515;-63
2021/11/30 13:43:09;;;;;;;0.53;0.53;;;5.40;99.90;;;;;;4979275;28;20447;-64
2021/11/30 13:45:42;;;;;;;0.60;0.60;;;5.50;99.90;;;;;;4982632;28;20462;-65
2021/11/30 13:48:09;;;;;;;0.40;0.40;;;5.50;99.90;;;;;;4977584;28;21025;-65
2021/11/30 13:50:42;;;;;;;0.40;0.40;;;5.50;99.90;;;;;;4977169;28;20475;-66
2021/11/30 13:53:13;;;;;;;0.70;0.70;;;5.50;99.90;;;;;;4977092;28;20443;-66
2021/11/30 13:55:41;;;;;;;0.60;0.60;;;5.20;99.90;;;;;;4977118;28;20439;-66
2021/11/30 13:58:14;;;;;;;0.50;0.50;;;4.90;99.90;;;;;;4977065;28;20550;-67
2021/11/30 14:00:48;;;;;;;0.50;0.43;;;4.80;99.90;;;;;;4976562;28;20491;-66
2021/11/30 14:03:15;;;;;;;0.40;0.40;;;4.80;99.90;;;;;;4985752;28;20455;-66
2021/11/30 14:05:43;;;;;;;0.80;0.80;;;4.70;99.90;;;;;;4982043;28;20863;-66
2021/11/30 14:08:10;;;;;;;0.73;0.73;;;4.60;99.90;;;;;;4977012;28;20462;-65
2021/11/30 14:10:41;;;;;;;0.83;0.70;;;4.60;99.90;;;;;;4977099;28;20538;-66
2021/11/30 14:13:08;;;;;;;0.60;0.60;;;4.60;99.90;;;;;;4976496;28;20930;-67
2021/11/30 14:15:34;;;;;;;1.13;0.70;;;4.60;99.90;;;;;;4976539;28;20874;-67
2021/11/30 14:18:03;;;;;;;0.40;0.40;;;4.70;99.90;;;;;;4979880;28;20483;-66
2021/11/30 14:20:30;;;;;;;0.50;0.50;;;4.70;99.90;;;;;;4986537;28;20504;-66
2021/11/30 14:22:58;;;;;;;1.33;0.50;;;4.70;99.90;;;;;;4983165;28;20463;-66
2021/11/30 14:25:26;;;;;;;1.57;0.70;;;4.70;99.90;;;;;;4976661;28;20459;-66
2021/11/30 14:27:55;;;;;;;0.83;0.50;;;4.70;99.90;;;;;;4976458;28;20459;-66
2021/11/30 14:30:24;;;;;;;0.60;0.60;;;4.60;99.90;;;;;;4976037;28;20486;-66
2021/11/30 14:33:01;;;;;;;0.60;0.60;;;4.70;99.90;;;;;;4976455;28;20513;-66
2021/11/30 14:35:38;;;;;;;0.60;0.60;;;4.70;99.90;;;;;;4976338;28;20789;-66
2021/11/30 14:38:08;;;;;;;0.60;0.60;;;4.70;99.90;;;;;;4975837;28;20977;-66
2021/11/30 14:40:38;;;;;;;2.73;2.30;;;4.60;99.90;;;;;;4975912;28;20993;-67
2021/11/30 14:43:11;;;;;;;9.50;5.43;;;4.60;99.90;;;;;;4977425;28;20513;-66
2021/11/30 14:45:44;;;;;;;5.17;2.70;;;4.70;99.90;;;;;;4976169;28;20458;-66
2021/11/30 14:48:14;;;;;;;3.33;3.00;;;4.70;99.90;;;;;;4976896;28;20451;-67
2021/11/30 14:50:51;;;;;;;3.30;2.73;;;4.80;99.90;;;;;;4976412;28;20475;-65
2021/11/30 14:53:22;;;;;;;1.90;1.80;;;4.80;99.90;;;;;;4976282;28;20443;-66
2021/11/30 14:55:55;;;;;;;1.67;1.57;;;4.80;99.90;;;;;;4976028;28;20450;-65
2021/11/30 14:58:29;;;;;;;0.80;0.80;;;4.80;99.90;;;;;;4976345;28;20443;-65
2021/11/30 15:01:04;;;;;;;0.77;0.77;;;4.80;99.90;;;;;;4974708;28;21001;-66
2021/11/30 15:03:37;;;;;;;1.70;1.20;;;4.80;99.90;;;;;;4975807;28;20545;-65
2021/11/30 15:06:16;;;;;;;1.37;1.33;;;4.80;99.90;;;;;;4975655;28;20447;-66
2021/11/30 15:08:52;;;;;;;0.80;0.80;;;4.80;99.90;;;;;;4975725;28;20514;-65
2021/11/30 15:11:27;;;;;;;0.60;0.60;;;4.80;99.90;;;;;;4975378;28;20529;-65
2021/11/30 15:13:56;;;;;;;0.67;0.53;;;4.80;99.90;;;;;;4976289;28;20439;-66
2021/11/30 15:16:44;;;;;;;0.60;0.60;;;4.80;99.90;;;;;;4976056;28;20985;-66
2021/11/30 15:19:14;;;;;;;1.83;0.70;;;4.80;99.90;;;;;;4976216;28;20435;-65
2021/11/30 15:21:43;;;;;;;0.50;0.50;;;4.80;99.90;;;;;;4975387;28;20897;-66
2021/11/30 15:24:13;;;;;;;0.50;0.50;;;4.90;99.90;;;;;;4975392;28;20455;-65
2021/11/30 15:26:41;;;;;;;0.50;0.50;;;4.90;99.90;;;;;;4975489;28;20459;-67
2021/11/30 15:29:10;;;;;;;1.90;0.60;;;4.90;99.90;;;;;;4975308;28;21056;-66
2021/11/30 15:31:38;;;;;;;0.80;0.57;;;4.90;99.90;;;;;;4975179;28;20549;-66
2021/11/30 15:34:04;;;;;;;0.60;0.50;;;5.00;99.90;;;;;;4974981;28;20947;-65
2021/11/30 15:36:32;;;;;;;1.00;1.00;;;5.00;99.90;;;;;;4975262;28;20463;-66
2021/11/30 15:38:59;;;;;;;1.67;0.73;;;5.00;99.90;;;;;;4975114;28;20462;-65
2021/11/30 15:41:27;;;;;;;0.63;0.60;;;5.10;99.90;;;;;;4974822;28;21072;-66
2021/11/30 15:43:54;;;;;;;0.73;0.73;;;5.00;99.90;;;;;;4974917;28;20862;-66
2021/11/30 15:46:21;;;;;;;0.87;0.87;;;5.00;99.90;;;;;;4974787;28;20851;-65
2021/11/30 15:48:47;;;;;;;0.60;0.50;;;5.00;99.90;;;;;;4974764;28;21036;-66
2021/11/30 15:51:22;;;;;;;0.63;0.63;;;5.10;99.90;;;;;;4974925;28;20582;-66
2021/11/30 15:53:50;;;;;;;1.17;0.57;;;5.00;99.90;;;;;;4974682;28;20819;-66
2021/11/30 15:59:03;;;;;;;0.77;0.63;;;5.00;99.90;;;;;;4975863;28;20411;-65
2021/11/30 16:01:30;;;;;;;0.60;0.60;;;5.00;99.90;;;;;;4974495;28;20875;-65
2021/11/30 16:03:56;;;;;;;1.07;0.50;;;5.00;99.90;;;;;;4975045;28;20545;-65
2021/11/30 16:06:23;;;;;;;0.50;0.50;;;5.00;99.90;;;;;;4975608;28;20459;-65
2021/11/30 16:08:50;;;;;;;1.07;0.60;;;5.00;99.90;;;;;;4975010;28;20463;-66
2021/11/30 16:11:18;;;;;;;1.00;0.50;;;5.00;99.90;;;;;;4977132;28;20510;-65
2021/11/30 16:13:47;;;;;;;3.70;0.60;;;5.00;99.90;;;;;;4978740;28;20457;-66
2021/11/30 16:16:16;;;;;;;1.70;0.50;;;5.10;99.90;;;;;;4978778;28;20551;-66
2021/11/30 16:18:42;;;;;;;1.80;0.53;;;5.00;99.90;;;;;;4978711;28;20458;-65
2021/11/30 16:21:09;;;;;;;0.70;0.70;;;5.00;99.90;;;;;;4978612;28;20558;-66
2021/11/30 16:23:36;;;;;;;1.53;1.53;;;5.00;99.90;;;;;;4979174;28;20528;-65
2021/11/30 16:26:03;;;;;;;0.77;0.77;;;5.00;99.90;;;;;;4978614;28;20461;-67
2021/11/30 16:28:30;;;;;;;1.60;1.10;;;4.90;99.90;;;;;;4978272;28;20907;-65
2021/11/30 16:30:56;;;;;;;0.50;0.50;;;5.00;99.90;;;;;;4978631;28;20541;-66
2021/11/30 16:33:25;;;;;;;1.53;0.83;;;4.90;99.90;;;;;;4979533;28;20507;-66
2021/11/30 16:35:53;;;;;;;0.60;0.60;;;4.90;99.90;;;;;;4979852;28;20517;-66
2021/11/30 16:38:20;;;;;;;0.70;0.63;;;4.90;99.90;;;;;;4979341;28;20459;-67
2021/11/30 16:40:48;;;;;;;1.67;0.60;;;4.90;99.90;;;;;;4978744;28;20530;-66
2021/11/30 16:43:14;;;;;;;2.13;0.93;;;4.90;99.90;;;;;;4979174;28;20862;-66
2021/11/30 16:45:41;;;;;;;1.67;0.70;;;4.90;99.90;;;;;;4978528;28;20462;-66
2021/11/30 16:48:08;;;;;;;3.20;0.90;;;4.90;99.90;;;;;;4978354;28;20521;-66
2021/11/30 16:50:38;;;;;;;3.30;1.10;;;5.00;99.90;;;;;;4978291;28;20479;-66
2021/11/30 16:53:06;;;;;;;2.67;0.70;;;5.00;99.90;;;;;;4978782;28;20767;-65
2021/11/30 16:55:34;;;;;;;1.47;0.87;;;5.00;99.90;;;;;;4978978;28;20462;-65
2021/11/30 16:58:01;;;;;;;3.27;1.13;;;4.90;99.90;;;;;;4978399;28;20459;-65
2021/11/30 17:00:28;;;;;;;2.27;0.70;;;4.90;99.90;;;;;;4978145;28;20451;-66
2021/11/30 17:02:54;;;;;;;1.00;0.80;;;4.90;99.90;;;;;;4978569;28;20447;-66
2021/11/30 17:05:21;;;;;;;2.60;0.73;;;4.90;99.90;;;;;;4979261;28;20455;-65
2021/11/30 17:07:49;;;;;;;0.97;0.70;;;4.80;99.90;;;;;;4978311;28;20463;-65
2021/11/30 17:10:17;;;;;;;1.33;0.70;;;4.80;99.90;;;;;;4979086;28;20474;-65
2021/11/30 17:12:43;;;;;;;1.03;0.90;;;4.80;99.90;;;;;;4985216;28;20467;-64
2021/11/30 17:15:12;;;;;;;1.07;1.00;;;4.80;99.90;;;;;;4985784;28;20455;-65
2021/11/30 17:17:40;;;;;;;0.60;0.60;;;4.80;99.90;;;;;;4978720;28;20494;-65
2021/11/30 17:20:07;;;;;;;0.93;0.93;;;4.80;99.90;;;;;;4986968;28;20793;-66
2021/11/30 17:22:34;;;;;;;1.00;1.00;;;4.80;99.90;;;;;;4986727;28;20478;-66
2021/11/30 17:25:02;;;;;;;1.00;0.93;;;4.80;99.90;;;;;;4978250;28;20867;-67
2021/11/30 17:27:29;;;;;;;0.83;0.83;;;4.80;99.90;;;;;;4978345;28;20455;-66
2021/11/30 17:29:57;;;;;;;0.83;0.83;;;4.80;99.90;;;;;;4978022;28;20838;-66
2021/11/30 17:32:24;;;;;;;0.70;0.60;;;4.80;99.90;;;;;;4977654;28;20549;-67
2021/11/30 17:34:51;;;;;;;2.00;1.10;;;4.70;99.90;;;;;;4977932;28;20463;-66
2021/11/30 17:37:18;;;;;;;1.10;0.93;;;4.80;99.90;;;;;;4977475;28;20451;-65
2021/11/30 17:39:46;;;;;;;1.33;1.07;;;4.80;99.90;;;;;;4977374;28;20455;-66
2021/11/30 17:42:15;;;;;;;8.73;3.07;;;4.80;99.90;;;;;;4977826;28;20549;-66
2021/11/30 17:44:42;;;;;;;4.60;3.00;;;4.80;99.90;;;;;;4977163;28;20462;-66
2021/11/30 17:47:09;;;;;;;6.90;3.63;;;4.80;99.90;;;;;;4977553;28;20463;-66
2021/11/30 17:49:36;;;;;;;12.20;4.40;;;4.80;99.90;;;;;;4976739;28;21085;-65
2021/11/30 17:52:03;;;;;;;6.47;4.63;;;4.90;99.90;;;;;;4977239;28;20483;-65
2021/11/30 17:54:30;;;;;;;1.67;1.57;;;4.90;99.90;;;;;;4977039;28;20519;-65
2021/11/30 17:56:57;;;;;;;1.63;1.47;;;4.90;99.90;;;;;;4976982;28;20514;-66
2021/11/30 17:59:25;;;;;;;4.13;1.77;;;4.90;99.90;;;;;;4977214;28;20505;-66
2021/11/30 18:01:51;;;;;;;1.53;1.00;;;4.90;99.90;;;;;;4976844;28;20487;-66
2021/11/30 18:04:18;;;;;;;1.13;1.13;;;4.90;99.90;;;;;;4977356;28;20462;-65
2021/11/30 18:06:45;;;;;;;2.13;1.27;;;4.90;99.90;;;;;;4977072;28;20628;-65
2021/11/30 18:09:13;;;;;;;1.20;1.20;;;4.90;99.90;;;;;;4977283;28;20534;-65
2021/11/30 18:11:41;;;;;;;1.17;1.17;;;4.90;99.90;;;;;;4976925;28;20533;-66